Time;durP1;ratioP1;P1;durP2;ratioP2;P2;SDS_P1;SDS_P2;PMS_P1;PMS_P2;Temp;Humidity;BMP_temperature;BMP_pressure;BME280_temperature;BME280_humidity;BME280_pressure;Samples;Min_cycle;Max_cycle;Signal;HPM_P1;HPM_P2
2021/08/09 00:00:45;;;;;;;5.55;2.38;;;;;;;12.30;89.61;100229.03;4860989;29;20029;-86
2021/08/09 00:03:10;;;;;;;6.30;1.83;;;;;;;12.30;90.01;100239.81;4854750;29;20040;-86
2021/08/09 00:05:36;;;;;;;12.75;2.45;;;;;;;12.24;90.18;100235.19;4887612;29;20040;-88
2021/08/09 00:08:02;;;;;;;5.43;2.10;;;;;;;12.29;90.35;100238.13;4864365;29;20044;-88
2021/08/09 00:10:30;;;;;;;10.75;2.30;;;;;;;12.30;90.52;100239.81;4861552;29;20033;-88
2021/08/09 00:12:56;;;;;;;6.95;2.10;;;;;;;12.36;90.66;100245.41;4878142;29;20033;-88
2021/08/09 00:15:22;;;;;;;7.32;1.88;;;;;;;12.38;90.98;100243.34;4865021;29;20028;-88
2021/08/09 00:17:47;;;;;;;8.15;2.13;;;;;;;12.40;91.07;100250.22;4866711;29;20032;-87
2021/08/09 00:20:13;;;;;;;5.07;2.00;;;;;;;12.43;90.49;100240.88;4879498;29;20036;-87
2021/08/09 00:22:39;;;;;;;7.47;2.03;;;;;;;12.49;90.84;100245.47;4861737;29;20037;-88
2021/08/09 00:25:06;;;;;;;6.45;2.50;;;;;;;12.46;90.15;100244.03;4862401;29;20045;-87
2021/08/09 00:27:31;;;;;;;6.13;1.83;;;;;;;12.49;90.46;100240.06;4870314;29;20035;-88
2021/08/09 00:29:57;;;;;;;5.45;2.35;;;;;;;12.42;90.49;100236.53;4862694;29;20032;-88
2021/08/09 00:32:22;;;;;;;10.52;2.20;;;;;;;12.43;90.65;100246.28;4874305;29;20112;-88
2021/08/09 00:34:47;;;;;;;11.40;2.53;;;;;;;12.40;91.16;100239.44;4877124;29;20498;-88
2021/08/09 00:37:13;;;;;;;8.65;2.70;;;;;;;12.43;91.07;100239.03;4859114;29;20089;-89
2021/08/09 00:39:40;;;;;;;11.95;2.53;;;;;;;12.44;91.15;100239.88;4860327;29;20446;-88
2021/08/09 00:42:07;;;;;;;7.30;2.40;;;;;;;12.39;91.00;100242.34;4870515;29;20033;-88
2021/08/09 00:44:33;;;;;;;6.25;2.08;;;;;;;12.51;91.52;100243.41;4863500;29;20104;-88
2021/08/09 00:46:59;;;;;;;15.07;3.13;;;;;;;12.56;91.33;100251.72;4885117;29;20029;-88
2021/08/09 00:49:24;;;;;;;6.63;2.40;;;;;;;12.54;91.43;100243.00;4865696;29;20088;-88
2021/08/09 00:51:51;;;;;;;12.63;2.45;;;;;;;12.58;91.16;100240.75;4876391;29;20445;-88
2021/08/09 00:54:17;;;;;;;8.18;2.05;;;;;;;12.63;90.79;100254.47;4862472;29;20463;-88
2021/08/09 00:56:43;;;;;;;7.15;2.30;;;;;;;12.59;91.38;100242.41;4860944;29;20037;-89
2021/08/09 00:59:08;;;;;;;8.00;2.00;;;;;;;12.64;91.56;100245.34;4872846;29;20037;-88
2021/08/09 01:01:34;;;;;;;7.72;2.20;;;;;;;12.53;91.19;100222.47;4866093;29;20036;-88
2021/08/09 01:04:00;;;;;;;11.25;2.50;;;;;;;12.65;91.43;100246.97;4861970;29;20032;-88
2021/08/09 01:06:26;;;;;;;7.50;1.92;;;;;;;12.60;91.55;100238.69;4861797;29;20510;-90
2021/08/09 01:09:16;;;;;;;6.72;2.20;;;;;;;12.64;91.80;100243.47;4861626;29;20047;-88
2021/08/09 01:11:58;;;;;;;9.20;2.17;;;;;;;12.67;91.31;100244.94;4861732;29;20088;-88
2021/08/09 01:14:30;;;;;;;6.47;1.98;;;;;;;12.67;91.05;100248.44;4872816;29;20092;-88
2021/08/09 01:16:56;;;;;;;6.55;1.67;;;;;;;12.58;91.35;100233.50;4874948;29;20045;-88
2021/08/09 01:19:51;;;;;;;7.80;2.03;;;;;;;12.64;91.39;100239.94;4855819;29;20036;-88
2021/08/09 01:22:38;;;;;;;7.05;2.13;;;;;;;12.63;91.29;100247.22;4871679;29;20096;-88
2021/08/09 01:25:16;;;;;;;6.65;2.70;;;;;;;12.61;90.97;100243.88;4858373;29;20498;-88
2021/08/09 01:27:43;;;;;;;6.78;2.45;;;;;;;12.53;91.50;100238.66;4888970;29;20124;-86
2021/08/09 01:30:10;;;;;;;5.30;2.03;;;;;;;12.52;91.74;100237.81;4867429;29;20112;-87
2021/08/09 01:32:41;;;;;;;7.68;1.90;;;;;;;12.53;91.47;100244.06;4869621;29;20029;-88
2021/08/09 01:35:08;;;;;;;7.50;2.20;;;;;;;12.53;91.70;100241.34;4866050;29;20039;-88
2021/08/09 01:37:35;;;;;;;8.50;1.92;;;;;;;12.54;92.13;100243.84;4853268;29;20029;-87
2021/08/09 01:40:05;;;;;;;7.93;2.25;;;;;;;12.52;91.67;100237.81;4872299;29;20108;-86
2021/08/09 01:42:31;;;;;;;9.50;2.40;;;;;;;12.29;91.74;100200.38;4885445;29;20421;-87
2021/08/09 01:44:56;;;;;;;5.55;2.22;;;;;;;12.51;91.85;100228.06;4856992;29;20623;-87
2021/08/09 01:47:22;;;;;;;6.60;2.20;;;;;;;12.54;92.11;100238.47;4857772;29;20040;-88
2021/08/09 01:49:47;;;;;;;7.15;1.77;;;;;;;12.60;92.14;100233.31;4859655;29;20031;-87
2021/08/09 01:52:13;;;;;;;5.45;1.77;;;;;;;12.63;91.91;100240.97;4870100;29;20029;-87
2021/08/09 01:54:39;;;;;;;7.88;2.00;;;;;;;12.61;91.91;100235.78;4872336;29;20394;-87
2021/08/09 01:57:05;;;;;;;5.15;2.08;;;;;;;12.56;92.61;100226.63;4860351;29;20104;-87
2021/08/09 01:59:30;;;;;;;7.53;1.88;;;;;;;12.53;92.33;100234.09;4869680;29;20470;-87
2021/08/09 02:01:56;;;;;;;5.65;1.90;;;;;;;12.47;92.67;100223.28;4852531;29;20021;-87
2021/08/09 02:04:21;;;;;;;6.45;2.10;;;;;;;12.39;92.63;100207.28;4871310;29;20120;-87
2021/08/09 02:06:47;;;;;;;7.40;2.20;;;;;;;12.56;92.46;100234.72;4870911;29;20021;-87
2021/08/09 02:09:12;;;;;;;6.45;2.30;;;;;;;12.53;92.63;100225.16;4860776;29;20029;-86
2021/08/09 02:11:45;;;;;;;14.52;2.42;;;;;;;12.55;92.98;100233.91;4861326;29;20062;-87
2021/08/09 02:14:12;;;;;;;5.57;2.28;;;;;;;12.54;92.82;100234.91;4875929;29;20521;-87
2021/08/09 02:16:39;;;;;;;6.93;2.17;;;;;;;12.54;92.94;100235.78;4866024;29;20508;-87
2021/08/09 02:19:28;;;;;;;3.78;1.58;;;;;;;12.50;93.32;100223.72;4876153;29;20057;-87
2021/08/09 02:22:01;;;;;;;9.95;1.67;;;;;;;12.59;93.55;100237.00;4865716;29;20164;-86
2021/08/09 02:24:30;;;;;;;4.22;1.83;;;;;;;12.59;93.26;100226.22;4873107;29;20054;-87
2021/08/09 02:27:05;;;;;;;9.35;1.95;;;;;;;12.65;93.19;100226.25;4857490;29;20035;-87
2021/08/09 02:29:32;;;;;;;7.90;1.98;;;;;;;12.57;92.73;100215.66;4870002;29;20029;-87
2021/08/09 02:31:58;;;;;;;8.13;3.58;;;;;;;12.65;93.09;100242.44;4874226;29;20059;-87
2021/08/09 02:34:26;;;;;;;6.63;1.95;;;;;;;12.61;93.17;100227.69;4858752;29;20039;-88
2021/08/09 02:36:52;;;;;;;8.02;2.17;;;;;;;12.59;92.98;100229.75;4876208;29;20020;-87
2021/08/09 02:39:18;;;;;;;12.98;2.08;;;;;;;12.60;93.12;100230.59;4873928;29;20388;-87
2021/08/09 02:41:45;;;;;;;6.57;2.20;;;;;;;12.60;93.34;100239.53;4857645;29;20510;-88
2021/08/09 02:44:11;;;;;;;7.30;1.88;;;;;;;12.57;93.59;100214.81;4876010;29;20490;-88
2021/08/09 02:46:38;;;;;;;7.22;2.30;;;;;;;12.34;93.04;100186.31;4857519;29;20033;-86
2021/08/09 02:49:04;;;;;;;7.00;1.98;;;;;;;12.42;92.90;100201.50;4857797;29;20068;-87
2021/08/09 02:51:31;;;;;;;9.32;2.35;;;;;;;12.54;93.28;100213.34;4859339;29;20980;-87
2021/08/09 02:53:56;;;;;;;3.15;1.50;;;;;;;12.54;93.62;100199.84;4859879;29;20029;-87
2021/08/09 02:56:24;;;;;;;7.78;2.25;;;;;;;12.62;93.21;100218.59;4865077;29;20081;-87
2021/08/09 02:58:53;;;;;;;9.95;2.97;;;;;;;12.54;93.13;100199.84;4886949;29;20036;-87
2021/08/09 03:01:18;;;;;;;5.03;1.70;;;;;;;12.61;92.96;100214.19;4850180;29;20123;-87
2021/08/09 03:03:45;;;;;;;9.57;2.20;;;;;;;12.57;93.57;100210.25;4852386;29;20116;-87
2021/08/09 03:06:11;;;;;;;7.88;2.15;;;;;;;12.43;93.07;100197.75;4859894;29;20032;-87
2021/08/09 03:08:37;;;;;;;9.60;2.30;;;;;;;12.59;93.36;100218.13;4859288;29;20037;-87
2021/08/09 03:11:02;;;;;;;7.28;1.90;;;;;;;12.51;93.36;100213.75;4870978;29;20069;-87
2021/08/09 03:13:28;;;;;;;11.68;2.63;;;;;;;12.48;93.54;100206.06;4874103;29;20046;-86
2021/08/09 03:15:54;;;;;;;6.25;1.60;;;;;;;12.31;93.66;100181.34;4859293;29;20032;-87
2021/08/09 03:18:19;;;;;;;8.23;2.22;;;;;;;12.57;93.97;100220.19;4873360;29;20069;-87
2021/08/09 03:20:45;;;;;;;5.20;2.10;;;;;;;12.55;93.85;100217.72;4860770;29;20039;-87
2021/08/09 03:23:10;;;;;;;8.30;2.30;;;;;;;12.43;93.45;100201.28;4874715;29;20069;-87
2021/08/09 03:25:39;;;;;;;10.45;2.17;;;;;;;12.55;94.00;100220.41;4875340;29;20025;-86
2021/08/09 03:28:08;;;;;;;5.82;2.30;;;;;;;12.53;93.88;100223.31;4872273;29;20057;-87
2021/08/09 03:30:33;;;;;;;6.63;1.75;;;;;;;12.50;93.86;100214.78;4854757;29;20497;-87
2021/08/09 03:32:59;;;;;;;8.02;2.33;;;;;;;12.44;93.98;100213.75;4867717;29;20580;-86
2021/08/09 03:35:24;;;;;;;8.07;2.72;;;;;;;12.52;93.84;100226.22;4873164;29;21851;-87
2021/08/09 03:37:50;;;;;;;6.07;1.80;;;;;;;12.44;93.92;100211.03;4845964;29;20029;-87
2021/08/09 03:40:15;;;;;;;10.70;2.88;;;;;;;12.47;94.36;100217.91;4872961;29;20041;-87
2021/08/09 03:42:41;;;;;;;7.30;2.25;;;;;;;12.23;94.04;100176.13;4872764;29;20033;-88
2021/08/09 03:45:07;;;;;;;7.55;2.08;;;;;;;12.31;94.37;100195.63;4874097;29;20041;-87
2021/08/09 03:47:33;;;;;;;8.63;2.38;;;;;;;12.50;94.47;100214.78;4858876;29;20081;-87
2021/08/09 03:49:59;;;;;;;8.15;2.72;;;;;;;12.48;94.60;100209.59;4874342;29;20032;-88
2021/08/09 03:52:24;;;;;;;4.72;1.75;;;;;;;12.46;94.25;100210.81;4878134;29;20112;-88
2021/08/09 03:54:50;;;;;;;7.93;3.25;;;;;;;12.44;94.57;100202.13;4893510;29;20115;-88
2021/08/09 03:57:15;;;;;;;4.72;1.83;;;;;;;12.53;94.76;100206.28;4888688;29;20037;-88
2021/08/09 03:59:40;;;;;;;9.32;2.03;;;;;;;12.21;94.53;100162.81;4875374;29;20108;-89
2021/08/09 04:02:06;;;;;;;7.07;2.10;;;;;;;12.47;94.72;100207.13;4862266;29;20435;-88
2021/08/09 04:04:32;;;;;;;6.55;2.63;;;;;;;12.37;94.88;100195.88;4862642;29;20029;-88
2021/08/09 04:06:58;;;;;;;7.25;2.60;;;;;;;12.50;95.00;100212.09;4862486;29;20044;-89
2021/08/09 04:09:23;;;;;;;10.07;2.70;;;;;;;12.47;94.76;100204.41;4862362;29;20025;-88
2021/08/09 04:11:49;;;;;;;8.95;2.17;;;;;;;12.50;94.95;100198.63;4859335;29;20142;-88
2021/08/09 04:14:14;;;;;;;6.57;2.22;;;;;;;12.53;95.08;100209.00;4862649;29;20498;-89
2021/08/09 04:16:39;;;;;;;6.30;1.90;;;;;;;12.52;95.11;100196.56;4858973;29;20037;-88
2021/08/09 04:19:05;;;;;;;5.65;2.15;;;;;;;12.49;95.61;100188.84;4877545;29;20025;-89
2021/08/09 04:21:30;;;;;;;10.05;2.50;;;;;;;12.48;95.00;100189.88;4865452;29;20071;-89
2021/08/09 04:23:56;;;;;;;7.03;2.30;;;;;;;12.54;95.04;100203.41;4859484;29;20764;-88
2021/08/09 04:26:21;;;;;;;6.97;2.33;;;;;;;12.50;95.02;100193.22;4872665;29;20085;-88
2021/08/09 04:28:47;;;;;;;7.10;1.92;;;;;;;12.29;95.23;100159.13;4861797;29;20039;-88
2021/08/09 04:31:13;;;;;;;9.07;3.40;;;;;;;12.54;95.17;100202.56;4861722;29;20052;-88
2021/08/09 04:33:46;;;;;;;6.88;2.38;;;;;;;12.51;95.06;100195.69;4861690;29;20116;-88
2021/08/09 04:36:12;;;;;;;7.22;2.10;;;;;;;12.53;95.00;100199.03;4860069;29;20128;-89
2021/08/09 04:38:38;;;;;;;6.43;2.47;;;;;;;12.45;95.29;100185.72;4888116;29;20033;-88
2021/08/09 04:41:08;;;;;;;6.95;2.22;;;;;;;12.50;95.58;100187.81;4877492;29;20029;-88
2021/08/09 04:43:35;;;;;;;6.68;2.13;;;;;;;12.51;95.61;100198.38;4861766;29;20572;-88
2021/08/09 04:46:01;;;;;;;10.35;4.45;;;;;;;12.29;95.55;100159.97;4874838;29;20025;-88
2021/08/09 04:48:26;;;;;;;5.20;2.38;;;;;;;12.46;95.34;100186.56;4853602;29;20379;-88
2021/08/09 04:50:51;;;;;;;5.50;2.33;;;;;;;12.45;95.45;100182.22;4861952;29;20016;-88
2021/08/09 04:53:17;;;;;;;6.88;2.25;;;;;;;12.55;95.66;100198.84;4862202;29;20044;-89
2021/08/09 04:55:42;;;;;;;8.73;2.75;;;;;;;12.50;95.84;100180.56;4858920;29;20390;-88
2021/08/09 04:58:08;;;;;;;11.35;2.15;;;;;;;12.54;95.25;100189.06;4870407;29;20029;-88
2021/08/09 05:00:33;;;;;;;5.57;2.15;;;;;;;12.59;95.32;100192.00;4871257;29;20022;-88
2021/08/09 05:02:59;;;;;;;6.63;2.22;;;;;;;12.64;95.32;100191.38;4870818;29;20043;-88
2021/08/09 05:05:24;;;;;;;8.00;2.30;;;;;;;12.63;95.13;100192.44;4877064;29;20028;-88
2021/08/09 05:07:56;;;;;;;9.18;2.50;;;;;;;12.64;95.20;100197.59;4861674;29;20111;-89
2021/08/09 05:10:22;;;;;;;5.68;2.63;;;;;;;12.61;95.36;100183.72;4863023;29;20049;-88
2021/08/09 05:12:48;;;;;;;8.13;2.53;;;;;;;12.60;95.14;100187.44;4867741;29;20040;-88
2021/08/09 05:15:13;;;;;;;3.90;2.17;;;;;;;12.59;95.33;100191.16;4862093;29;20037;-88
2021/08/09 05:17:39;;;;;;;6.55;2.60;;;;;;;12.54;94.88;100184.53;4867695;29;20044;-89
2021/08/09 05:20:06;;;;;;;6.82;2.90;;;;;;;12.61;94.94;100198.03;4861754;29;20036;-89
2021/08/09 05:22:32;;;;;;;6.30;2.40;;;;;;;12.60;95.21;100207.16;4876953;29;20093;-88
2021/08/09 05:24:58;;;;;;;9.35;2.45;;;;;;;12.64;95.16;100203.00;4863736;29;20397;-88
2021/08/09 05:27:24;;;;;;;6.22;2.42;;;;;;;12.64;94.92;100204.88;4855590;29;20116;-88
2021/08/09 05:29:49;;;;;;;8.65;2.80;;;;;;;12.63;94.92;100205.91;4851165;29;20028;-88
2021/08/09 05:32:15;;;;;;;10.95;3.10;;;;;;;12.60;94.93;100198.25;4855411;29;20028;-88
2021/08/09 05:34:42;;;;;;;5.25;2.75;;;;;;;12.65;95.04;100206.53;4858651;29;20049;-87
2021/08/09 05:37:08;;;;;;;8.13;3.20;;;;;;;12.62;94.76;100193.44;4857409;29;20081;-87
2021/08/09 05:39:34;;;;;;;8.10;3.00;;;;;;;12.66;94.92;100194.72;4871002;29;20025;-87
2021/08/09 05:42:00;;;;;;;6.70;2.75;;;;;;;12.64;95.08;100197.59;4883834;29;20033;-86
2021/08/09 05:44:25;;;;;;;6.32;2.63;;;;;;;12.69;94.82;100197.00;4874401;29;20067;-86
2021/08/09 05:46:50;;;;;;;5.07;2.47;;;;;;;12.74;94.61;100203.44;4857681;29;20036;-87
2021/08/09 05:49:16;;;;;;;7.15;2.55;;;;;;;12.76;94.87;100203.25;4881127;29;20033;-86
2021/08/09 05:51:41;;;;;;;9.13;2.50;;;;;;;12.79;94.58;100207.41;4875077;29;20112;-87
2021/08/09 05:54:08;;;;;;;8.52;2.80;;;;;;;12.64;94.58;100178.72;4858729;29;20032;-87
2021/08/09 05:56:34;;;;;;;8.60;2.92;;;;;;;12.80;94.38;100204.50;4874813;29;20029;-87
2021/08/09 05:58:59;;;;;;;9.32;3.08;;;;;;;12.92;94.06;100205.56;4884172;29;20029;-86
2021/08/09 06:01:25;;;;;;;8.10;2.70;;;;;;;12.97;93.94;100207.66;4886000;29;20067;-86
2021/08/09 06:03:50;;;;;;;11.38;2.65;;;;;;;13.03;93.82;100214.09;4866693;29;20491;-86
2021/08/09 06:06:19;;;;;;;7.00;2.67;;;;;;;13.04;93.35;100207.66;4875100;29;20091;-87
2021/08/09 06:08:48;;;;;;;9.40;3.13;;;;;;;13.07;93.53;100212.66;4860189;29;20129;-87
2021/08/09 06:11:14;;;;;;;9.00;3.25;;;;;;;13.09;93.41;100213.28;4853620;29;20091;-86
2021/08/09 06:13:39;;;;;;;9.52;3.00;;;;;;;13.16;93.21;100220.34;4858542;29;20474;-86
2021/08/09 06:16:05;;;;;;;6.72;2.35;;;;;;;13.16;93.06;100219.53;4869785;29;20029;-87
2021/08/09 06:18:34;;;;;;;6.75;2.50;;;;;;;13.23;93.09;100227.63;4864845;29;20093;-86
2021/08/09 06:21:03;;;;;;;10.07;3.00;;;;;;;13.25;93.31;100223.66;4890134;29;20033;-86
2021/08/09 06:23:29;;;;;;;10.15;2.95;;;;;;;13.18;93.18;100209.34;4872474;29;20104;-86
2021/08/09 06:25:55;;;;;;;7.60;2.63;;;;;;;13.28;92.90;100225.97;4854260;29;20037;-87
2021/08/09 06:28:21;;;;;;;9.63;3.03;;;;;;;13.31;93.08;100231.00;4871062;29;20033;-87
2021/08/09 06:30:47;;;;;;;8.43;3.03;;;;;;;13.27;92.87;100220.81;4894418;29;20120;-86
2021/08/09 06:33:12;;;;;;;12.43;3.17;;;;;;;13.36;93.25;100233.91;4875130;29;20049;-86
2021/08/09 06:35:38;;;;;;;8.88;2.88;;;;;;;13.32;92.75;100224.53;4856786;29;20032;-87
2021/08/09 06:38:05;;;;;;;15.68;3.25;;;;;;;13.40;92.83;100245.13;4860852;29;20020;-87
2021/08/09 06:40:30;;;;;;;8.77;3.42;;;;;;;13.35;92.66;100231.41;4871784;29;20032;-87
2021/08/09 06:42:56;;;;;;;7.30;2.58;;;;;;;13.39;92.59;100236.19;4862823;29;20029;-87
2021/08/09 06:45:21;;;;;;;9.98;3.10;;;;;;;13.46;92.50;100238.88;4874981;29;20036;-87
2021/08/09 06:47:47;;;;;;;10.27;3.97;;;;;;;13.50;92.50;100229.34;4858744;29;20904;-86
2021/08/09 06:50:12;;;;;;;8.40;2.75;;;;;;;13.56;92.46;100239.31;4850437;29;20033;-90
2021/08/09 06:52:37;;;;;;;12.00;3.35;;;;;;;13.59;92.03;100238.88;4876022;29;20029;-87
2021/08/09 06:55:03;;;;;;;5.75;2.63;;;;;;;13.63;92.27;100240.13;4865092;29;20029;-87
2021/08/09 06:57:28;;;;;;;10.98;3.53;;;;;;;13.69;91.91;100235.78;4868007;29;20033;-89
2021/08/09 06:59:54;;;;;;;7.30;2.78;;;;;;;13.73;91.51;100236.16;4864644;29;20034;-87
2021/08/09 07:02:19;;;;;;;8.52;2.88;;;;;;;13.74;91.80;100232.44;4879887;29;20030;-87
2021/08/09 07:04:45;;;;;;;11.70;2.72;;;;;;;13.81;91.45;100236.81;4867153;29;20072;-87
2021/08/09 07:07:10;;;;;;;9.25;3.40;;;;;;;13.77;91.52;100223.91;4869267;29;20113;-87
2021/08/09 07:09:36;;;;;;;6.88;2.80;;;;;;;13.84;91.66;100227.44;4866973;29;20017;-87
2021/08/09 07:12:01;;;;;;;12.93;3.10;;;;;;;13.86;91.39;100228.03;4878225;29;20085;-88
2021/08/09 07:14:27;;;;;;;8.25;2.55;;;;;;;13.90;91.39;100234.72;4868225;29;20032;-89
2021/08/09 07:16:52;;;;;;;10.98;3.20;;;;;;;13.90;91.26;100237.41;4876179;29;20084;-87
2021/08/09 07:19:18;;;;;;;9.43;3.08;;;;;;;13.93;91.60;100234.28;4869919;29;20056;-87
2021/08/09 07:21:43;;;;;;;9.90;3.13;;;;;;;13.95;91.27;100240.31;4861387;29;20021;-88
2021/08/09 07:24:09;;;;;;;8.95;3.47;;;;;;;13.91;91.15;100225.53;4862766;29;20529;-87
2021/08/09 07:26:34;;;;;;;13.45;3.42;;;;;;;14.05;91.02;100242.56;4857098;29;20021;-88
2021/08/09 07:29:00;;;;;;;10.32;3.05;;;;;;;14.07;90.62;100235.06;4877812;29;20681;-89
2021/08/09 07:31:25;;;;;;;9.18;3.00;;;;;;;14.13;90.60;100231.56;4858908;29;20036;-88
2021/08/09 07:33:51;;;;;;;10.80;3.05;;;;;;;14.16;90.53;100233.00;4857472;29;20026;-88
2021/08/09 07:36:16;;;;;;;8.32;3.70;;;;;;;14.14;90.40;100225.09;4877891;29;20017;-88
2021/08/09 07:38:42;;;;;;;9.85;3.50;;;;;;;14.18;90.23;100237.13;4862536;29;20025;-89
2021/08/09 07:41:08;;;;;;;12.82;3.78;;;;;;;14.22;90.18;100245.66;4863220;29;20033;-88
2021/08/09 07:43:33;;;;;;;11.27;3.53;;;;;;;14.18;90.60;100233.59;4877861;29;20028;-87
2021/08/09 07:45:59;;;;;;;9.32;3.20;;;;;;;14.27;89.96;100253.97;4888399;29;20064;-88
2021/08/09 07:48:24;;;;;;;13.88;3.28;;;;;;;14.30;90.15;100242.72;4861938;29;20048;-88
2021/08/09 07:50:50;;;;;;;11.35;2.97;;;;;;;14.35;90.32;100252.91;4868982;29;20025;-87
2021/08/09 07:53:16;;;;;;;13.32;3.30;;;;;;;14.34;90.59;100252.06;4874145;29;20044;-89
2021/08/09 07:55:41;;;;;;;9.35;3.38;;;;;;;14.26;90.66;100260.41;4873464;29;20049;-90
2021/08/09 07:58:07;;;;;;;10.13;3.17;;;;;;;14.13;90.93;100252.31;4862260;29;20026;-88
2021/08/09 08:00:32;;;;;;;9.68;2.80;;;;;;;14.08;91.87;100259.22;4884348;29;20039;-88
2021/08/09 08:02:59;;;;;;;7.97;3.38;;;;;;;13.96;92.07;100254.66;4860438;29;20092;-86
2021/08/09 08:05:34;;;;;;;7.63;3.25;;;;;;;13.78;92.05;100247.19;4864020;29;20036;-88
2021/08/09 08:08:24;;;;;;;9.82;3.28;;;;;;;13.77;91.85;100259.03;4861809;29;20037;-89
2021/08/09 08:10:50;;;;;;;8.70;2.65;;;;;;;13.68;91.92;100253.03;4874767;29;20025;-87
2021/08/09 08:13:15;;;;;;;9.30;2.70;;;;;;;13.75;91.46;100263.81;4859959;29;20051;-88
2021/08/09 08:15:41;;;;;;;5.95;2.72;;;;;;;13.72;91.00;100256.13;4876691;29;20029;-88
2021/08/09 08:18:06;;;;;;;7.00;2.40;;;;;;;13.77;90.86;100270.69;4861053;29;20058;-86
2021/08/09 08:20:31;;;;;;;4.95;2.55;;;;;;;13.79;90.54;100263.19;4858801;29;20933;-86
2021/08/09 08:22:58;;;;;;;4.28;2.20;;;;;;;13.76;90.48;100257.38;4872978;29;20093;-87
2021/08/09 08:25:23;;;;;;;6.28;2.90;;;;;;;13.83;90.57;100261.72;4862482;29;20037;-86
2021/08/09 08:27:49;;;;;;;5.07;2.33;;;;;;;13.91;90.59;100263.38;4872081;29;20116;-87
2021/08/09 08:30:15;;;;;;;8.80;2.83;;;;;;;13.95;90.36;100259.22;4869320;29;20029;-87
2021/08/09 08:32:41;;;;;;;13.77;3.42;;;;;;;14.10;90.03;100267.09;4881864;29;20079;-87
2021/08/09 08:35:08;;;;;;;8.32;2.88;;;;;;;14.06;89.91;100252.34;4866352;29;20080;-86
2021/08/09 08:37:34;;;;;;;11.48;4.03;;;;;;;14.20;89.50;100264.78;4870596;29;20044;-86
2021/08/09 08:39:59;;;;;;;7.45;3.15;;;;;;;14.27;89.77;100262.09;4868891;29;20037;-87
2021/08/09 08:42:25;;;;;;;8.32;2.85;;;;;;;14.24;89.41;100265.22;4873550;29;20447;-86
2021/08/09 08:44:50;;;;;;;9.13;3.03;;;;;;;14.17;89.52;100267.09;4858556;29;20037;-86
2021/08/09 08:47:18;;;;;;;4.88;2.60;;;;;;;13.93;89.45;100233.47;4865276;29;20044;-86
2021/08/09 08:49:44;;;;;;;6.68;3.40;;;;;;;14.08;90.16;100263.78;4860152;29;20090;-86
2021/08/09 08:52:10;;;;;;;7.32;2.95;;;;;;;13.97;89.96;100267.97;4872419;29;20578;-87
2021/08/09 08:54:38;;;;;;;5.93;2.83;;;;;;;13.85;89.85;100245.31;4870259;29;20021;-86
2021/08/09 08:57:04;;;;;;;7.43;3.13;;;;;;;13.92;90.04;100273.16;4864864;29;20074;-86
2021/08/09 08:59:30;;;;;;;6.00;2.65;;;;;;;13.91;90.25;100271.50;4857966;29;20458;-86
2021/08/09 09:01:56;;;;;;;6.35;3.25;;;;;;;13.89;90.54;100261.94;4871332;29;20075;-86
2021/08/09 09:04:31;;;;;;;5.05;3.03;;;;;;;13.91;90.58;100260.69;4869909;29;20518;-86
2021/08/09 09:07:06;;;;;;;6.03;2.58;;;;;;;13.93;91.03;100264.00;4868472;29;20120;-86
2021/08/09 09:09:33;;;;;;;8.25;3.97;;;;;;;13.87;91.23;100266.75;4889474;29;20033;-86
2021/08/09 09:12:12;;;;;;;6.47;3.05;;;;;;;13.83;91.85;100272.53;4857852;29;20033;-87
2021/08/09 09:14:38;;;;;;;13.60;4.07;;;;;;;13.70;92.23;100258.22;4866056;29;20041;-86
2021/08/09 09:17:03;;;;;;;8.30;3.38;;;;;;;13.69;92.24;100262.78;4873663;29;20073;-86
2021/08/09 09:19:36;;;;;;;10.30;4.40;;;;;;;13.71;92.46;100276.09;4868214;29;20032;-86
2021/08/09 09:22:22;;;;;;;10.82;3.38;;;;;;;13.68;92.80;100277.34;4872283;29;20092;-86
2021/08/09 09:24:49;;;;;;;11.50;3.63;;;;;;;13.71;92.80;100284.22;4873038;29;20048;-86
2021/08/09 09:27:35;;;;;;;7.95;2.85;;;;;;;13.69;92.89;100288.97;4865851;29;20021;-86
2021/08/09 09:30:29;;;;;;;9.32;3.45;;;;;;;13.72;92.69;100297.50;4870969;29;20051;-87
2021/08/09 09:33:03;;;;;;;12.23;3.15;;;;;;;13.78;92.75;100288.53;4868020;29;20093;-86
2021/08/09 09:35:28;;;;;;;6.50;2.67;;;;;;;13.77;92.78;100288.75;4865600;29;20033;-86
2021/08/09 09:37:54;;;;;;;5.30;2.72;;;;;;;13.80;92.75;100280.25;4865490;29;20037;-86
2021/08/09 09:40:20;;;;;;;7.57;2.92;;;;;;;13.91;92.75;100284.19;4870062;29;20491;-86
2021/08/09 09:42:47;;;;;;;6.47;2.72;;;;;;;13.93;92.97;100290.22;4880013;29;20394;-87
2021/08/09 09:45:26;;;;;;;8.93;3.72;;;;;;;13.91;93.09;100292.28;4867680;29;20033;-86
2021/08/09 09:48:09;;;;;;;8.25;2.65;;;;;;;13.85;93.22;100286.69;4866964;29;20033;-86
2021/08/09 09:50:45;;;;;;;;;;;;;;;13.87;93.42;100291.88;4873568;29;20029;-86
2021/08/09 09:53:18;;;;;;;9.60;2.75;;;;;;;13.83;93.58;100302.25;4878905;29;19927;-86
2021/08/09 09:55:45;;;;;;;7.88;2.85;;;;;;;13.78;93.86;100301.22;4866122;29;20555;-86
2021/08/09 09:58:10;;;;;;;6.10;2.88;;;;;;;13.71;94.05;100295.84;4865895;29;20498;-86
2021/08/09 10:00:37;;;;;;;6.35;2.17;;;;;;;13.78;94.28;100314.75;4864462;29;20084;-88
2021/08/09 10:03:02;;;;;;;6.18;2.47;;;;;;;13.73;94.33;100299.13;4876769;29;20055;-88
2021/08/09 10:05:29;;;;;;;8.85;3.03;;;;;;;13.83;94.60;100307.66;4867593;29;20060;-87
2021/08/09 10:07:55;;;;;;;11.05;3.28;;;;;;;13.90;95.09;100304.16;4875046;29;20029;-89
2021/08/09 10:10:24;;;;;;;8.55;2.55;;;;;;;14.02;94.69;100305.16;4863324;29;20029;-88
2021/08/09 10:12:51;;;;;;;8.93;3.88;;;;;;;14.08;94.96;100301.63;4857461;29;20510;-87
2021/08/09 10:15:19;;;;;;;6.38;2.70;;;;;;;14.29;94.86;100312.22;4875100;29;20029;-87
2021/08/09 10:17:48;;;;;;;7.18;2.92;;;;;;;14.46;94.69;100311.75;4865183;29;20112;-88
2021/08/09 10:20:16;;;;;;;6.78;2.35;;;;;;;14.59;94.04;100310.91;4875588;29;20029;-88
2021/08/09 10:22:54;;;;;;;7.70;3.38;;;;;;;14.71;94.04;100303.78;4876566;29;20033;-89
2021/08/09 10:25:50;;;;;;;9.82;4.65;;;;;;;14.97;93.50;100316.38;4886596;29;20112;-88
2021/08/09 10:28:17;;;;;;;15.27;5.47;;;;;;;15.15;93.06;100319.19;4875851;29;20487;-88
2021/08/09 10:30:42;;;;;;;12.43;4.82;;;;;;;15.29;92.77;100317.25;4883520;29;20108;-88
2021/08/09 10:33:09;;;;;;;7.38;3.47;;;;;;;15.37;92.79;100308.03;4872788;29;20119;-88
2021/08/09 10:35:35;;;;;;;8.77;3.75;;;;;;;15.46;92.72;100308.63;4879267;29;20474;-88
2021/08/09 10:38:10;;;;;;;12.05;4.50;;;;;;;15.48;92.71;100311.91;4888512;29;20040;-88
2021/08/09 10:40:35;;;;;;;9.30;4.07;;;;;;;15.37;92.76;100305.31;4871568;29;20479;-89
2021/08/09 10:43:00;;;;;;;6.32;3.08;;;;;;;15.32;93.21;100310.56;4862739;29;20028;-88
2021/08/09 10:45:46;;;;;;;9.05;3.63;;;;;;;15.08;93.28;100312.16;4873594;29;20029;-87
2021/08/09 10:48:12;;;;;;;6.88;3.15;;;;;;;14.99;93.90;100325.13;4877295;29;20029;-88
2021/08/09 10:50:41;;;;;;;10.00;3.63;;;;;;;14.99;94.09;100319.69;4858023;29;20546;-88
2021/08/09 10:53:25;;;;;;;8.98;3.45;;;;;;;14.94;94.22;100331.16;4886530;29;20045;-87
2021/08/09 10:55:57;;;;;;;10.65;4.55;;;;;;;15.00;94.08;100325.94;4887226;29;20096;-88
2021/08/09 10:58:45;;;;;;;13.13;4.40;;;;;;;15.06;93.91;100331.34;4865639;29;20852;-88
2021/08/09 11:01:18;;;;;;;17.85;6.15;;;;;;;15.07;93.59;100322.16;4883554;29;20037;-88
2021/08/09 11:04:02;;;;;;;13.02;5.20;;;;;;;15.25;93.45;100337.69;4866876;29;20547;-88
2021/08/09 11:06:50;;;;;;;15.38;5.07;;;;;;;15.72;92.80;100326.59;4869527;29;20093;-87
2021/08/09 11:09:33;;;;;;;16.67;5.03;;;;;;;16.53;91.44;100328.31;4870327;29;20115;-88
2021/08/09 11:12:15;;;;;;;18.13;6.30;;;;;;;16.88;90.17;100327.75;4877768;29;20155;-88
2021/08/09 11:15:00;;;;;;;17.03;5.83;;;;;;;17.25;88.68;100330.41;4876836;29;20029;-87
2021/08/09 11:17:26;;;;;;;15.15;5.88;;;;;;;17.32;87.48;100326.53;4890574;29;20264;-88
2021/08/09 11:19:52;;;;;;;12.07;5.68;;;;;;;17.02;86.47;100325.72;4876014;29;20125;-88
2021/08/09 11:22:18;;;;;;;20.95;6.32;;;;;;;16.66;87.04;100330.06;4873614;29;20190;-88
2021/08/09 11:24:44;;;;;;;12.75;5.43;;;;;;;16.17;88.29;100315.56;4876279;29;20036;-88
2021/08/09 11:27:09;;;;;;;16.80;6.28;;;;;;;16.12;89.20;100342.53;4890829;29;20032;-88